UGSB/BUS METAR and TAF weather

Enter ICAO airport designator
Station Type Date Time Source
UGSB METAR 2021/09/19 13:30 UTC NOAA

UGSB 191330Z 22007KT CAVOK 24/20 Q1014 NOSIG


Station Type Date Time Source
UGSB Decoded METAR 2021/09/19 13:30 UTC NOAA

Station name not available
Sep 19, 2021 - 09:30 AM EDT / 2021.09.19 1330 UTC
Wind: from the SW (220 degrees) at 8 MPH (7 KT):0
Visibility: greater than 7 mile(s):0
Temperature: 75 F (24 C)
Dew Point: 68 F (20 C)
Relative Humidity: 78%
Pressure (altimeter): 29.94 in. Hg (1014 hPa)
ob: UGSB 191330Z 22007KT CAVOK 24/20 Q1014 NOSIG
cycle: 13

Station Type Date Time Source
UGSB TAF 2021/09/19 12:03 UTC NOAA

TAF UGSB 191100Z 1912/2012 31007KT CAVOK TX26/1912Z TN19/1923Z
BECMG 1916/1919 12015KT PROB40
TEMPO 1920/2002 SCT100
BECMG 2007/2008 33007KT

Example: see airport list